createdAt,value
2022-12-18T00:00:36.082Z,51.179173
2022-12-18T00:01:36.057Z,51.179184
2022-12-18T00:02:36.155Z,51.179192
2022-12-18T00:03:36.159Z,51.179127
2022-12-18T00:04:35.998Z,51.179173
2022-12-18T00:05:36.134Z,51.179214
2022-12-18T00:06:36.000Z,51.179276
2022-12-18T00:07:35.997Z,51.179279
2022-12-18T00:08:35.964Z,51.179234
2022-12-18T00:09:39.487Z,51.179253
2022-12-18T00:10:35.933Z,51.179245
2022-12-18T00:11:35.939Z,51.179195
2022-12-18T00:12:35.972Z,51.179207
2022-12-18T00:13:36.406Z,51.179218
2022-12-18T00:14:35.896Z,51.179230
2022-12-18T00:15:35.904Z,51.179234
2022-12-18T00:16:35.956Z,51.179222
2022-12-18T00:17:35.880Z,51.179214
2022-12-18T00:18:36.232Z,51.179226
2022-12-18T00:19:35.869Z,51.179211
2022-12-18T00:20:35.868Z,51.179207
2022-12-18T00:21:35.835Z,51.179207
2022-12-18T00:22:35.842Z,51.179222
2022-12-18T00:23:36.152Z,51.179207
2022-12-18T00:24:35.817Z,51.179222
2022-12-18T00:25:35.806Z,51.179207
2022-12-18T00:26:35.820Z,51.179226
2022-12-18T00:27:35.776Z,51.179234
2022-12-18T00:28:35.761Z,51.179249
2022-12-18T00:29:35.746Z,51.179230
2022-12-18T00:30:35.765Z,51.179203
2022-12-18T00:31:35.844Z,51.179184
2022-12-18T00:32:35.721Z,51.179161
2022-12-18T00:33:35.977Z,51.179134
2022-12-18T00:34:35.696Z,51.179104
2022-12-18T00:35:35.694Z,51.179241
2022-12-18T00:36:35.719Z,51.179234
2022-12-18T00:37:35.676Z,51.179218
2022-12-18T00:38:35.652Z,51.179188
2022-12-18T00:39:35.667Z,51.179192
2022-12-18T00:40:35.662Z,51.179188
2022-12-18T00:41:35.638Z,51.179222
2022-12-18T00:42:35.641Z,51.179207
2022-12-18T00:43:35.920Z,51.179222
2022-12-18T00:44:35.590Z,51.179169
2022-12-18T00:45:35.656Z,51.179131
2022-12-18T00:46:35.603Z,51.179146
2022-12-18T00:47:35.579Z,51.179131
2022-12-18T00:48:35.556Z,51.179161
2022-12-18T00:49:35.545Z,51.179230
2022-12-18T00:50:35.525Z,51.179234
2022-12-18T00:51:35.538Z,51.179211
2022-12-18T00:52:35.536Z,51.179211
2022-12-18T00:53:35.956Z,51.179195
2022-12-18T00:54:35.500Z,51.179207
2022-12-18T00:55:35.513Z,51.179241
2022-12-18T00:56:35.508Z,51.179234
2022-12-18T00:57:35.467Z,51.179260
2022-12-18T00:58:35.498Z,51.179207
2022-12-18T00:59:35.468Z,51.179249
2022-12-18T01:00:35.488Z,51.179222
2022-12-18T01:01:35.543Z,51.179237
2022-12-18T01:02:35.589Z,51.179287
2022-12-18T01:03:35.593Z,51.179260
2022-12-18T01:04:35.383Z,51.179276
2022-12-18T01:05:35.451Z,51.179245
2022-12-18T01:07:07.312Z,51.179226
2022-12-18T01:07:35.356Z,51.179226
2022-12-18T01:08:35.350Z,51.179207
2022-12-18T01:09:35.344Z,51.179192
2022-12-18T01:10:35.370Z,51.179188
2022-12-18T01:11:35.345Z,51.179157
2022-12-18T01:12:35.346Z,51.179157
2022-12-18T01:13:35.524Z,51.179165
2022-12-18T01:14:35.284Z,51.179195
2022-12-18T01:15:35.306Z,51.179253
2022-12-18T01:16:35.323Z,51.179249
2022-12-18T01:17:35.323Z,51.179272
2022-12-18T01:18:35.271Z,51.179253
2022-12-18T01:19:35.288Z,51.179256
2022-12-18T01:20:35.260Z,51.179279
2022-12-18T01:21:35.244Z,51.179283
2022-12-18T01:22:36.239Z,51.179230
2022-12-18T01:23:35.443Z,51.179234
2022-12-18T01:24:35.198Z,51.179230
2022-12-18T01:25:35.201Z,51.179234
2022-12-18T01:26:35.181Z,51.179276
2022-12-18T01:27:35.185Z,51.179226
2022-12-18T01:28:35.160Z,51.179260
2022-12-18T01:29:35.163Z,51.179211
2022-12-18T01:30:35.167Z,51.179184
2022-12-18T01:31:35.193Z,51.179214
2022-12-18T01:32:35.127Z,51.179260
2022-12-18T01:33:35.371Z,51.179226
2022-12-18T01:34:35.094Z,51.179207
2022-12-18T01:35:35.121Z,51.179230
2022-12-18T01:36:35.162Z,51.179237
2022-12-18T01:37:35.071Z,51.179203
2022-12-18T01:38:35.055Z,51.179214
2022-12-18T01:39:35.041Z,51.179245
2022-12-18T01:40:35.059Z,51.179241
2022-12-18T01:41:35.079Z,51.179249
2022-12-18T01:42:35.010Z,51.179249
2022-12-18T01:43:35.206Z,51.179234
2022-12-18T01:44:35.016Z,51.179249
2022-12-18T01:45:35.069Z,51.179237
2022-12-18T01:46:35.001Z,51.179253
2022-12-18T01:47:34.959Z,51.179237
2022-12-18T01:48:34.953Z,51.179245
2022-12-18T01:49:34.954Z,51.179245
2022-12-18T01:50:34.969Z,51.179234
2022-12-18T01:51:34.936Z,51.179245
2022-12-18T01:52:34.902Z,51.179260
2022-12-18T01:53:35.098Z,51.179260
2022-12-18T01:54:34.902Z,51.179256
2022-12-18T01:55:34.893Z,51.179264
2022-12-18T01:56:34.878Z,51.179287
2022-12-18T01:57:34.862Z,51.179283
2022-12-18T01:58:34.872Z,51.179291
2022-12-18T01:59:34.853Z,51.179272
2022-12-18T02:00:34.837Z,51.179214
2022-12-18T02:01:35.072Z,51.179230
2022-12-18T02:02:34.899Z,51.179234
2022-12-18T02:03:34.843Z,51.179249
2022-12-18T02:04:34.797Z,51.179276
2022-12-18T02:05:34.795Z,51.179245
2022-12-18T02:06:34.778Z,51.179253
2022-12-18T02:07:34.788Z,51.179249
2022-12-18T02:08:34.782Z,51.179207
2022-12-18T02:09:34.796Z,51.179237
2022-12-18T02:10:34.742Z,51.179234
2022-12-18T02:11:34.753Z,51.179234
2022-12-18T02:12:34.800Z,51.179218
2022-12-18T02:13:34.878Z,51.179237
2022-12-18T02:14:34.707Z,51.179241
2022-12-18T02:15:34.706Z,51.179218
2022-12-18T02:16:34.796Z,51.179245
2022-12-18T02:17:34.664Z,51.179245
2022-12-18T02:18:34.640Z,51.179295
2022-12-18T02:19:34.652Z,51.179302
2022-12-18T02:20:34.647Z,51.179245
2022-12-18T02:21:34.629Z,51.179253
2022-12-18T02:22:34.628Z,51.179276
2022-12-18T02:23:34.620Z,51.179253
2022-12-18T02:24:34.582Z,51.179234
2022-12-18T02:25:34.606Z,51.179253
2022-12-18T02:26:34.567Z,51.179260
2022-12-18T02:27:34.557Z,51.179253
2022-12-18T02:28:34.647Z,51.179222
2022-12-18T02:29:35.553Z,51.179268
2022-12-18T02:30:34.592Z,51.179310
2022-12-18T02:31:34.538Z,51.179287
2022-12-18T02:32:34.527Z,51.179298
2022-12-18T02:33:34.518Z,51.179310
2022-12-18T02:34:34.492Z,51.179291
2022-12-18T02:35:34.490Z,51.179287
2022-12-18T02:36:34.499Z,51.179272
2022-12-18T02:37:34.454Z,51.179264
2022-12-18T02:38:34.456Z,51.179283
2022-12-18T02:39:34.450Z,51.179256
2022-12-18T02:40:34.429Z,51.179256
2022-12-18T02:41:34.446Z,51.179287
2022-12-18T02:42:34.415Z,51.179279
2022-12-18T02:43:34.396Z,51.179241
2022-12-18T02:44:34.469Z,51.179195
2022-12-18T02:45:34.412Z,51.179241
2022-12-18T02:46:34.361Z,51.179218
2022-12-18T02:47:34.381Z,51.179195
2022-12-18T02:48:34.363Z,51.179234
2022-12-18T02:49:34.331Z,51.179253
2022-12-18T02:50:34.371Z,51.179264
2022-12-18T02:51:34.332Z,51.179268
2022-12-18T02:52:34.307Z,51.179245
2022-12-18T02:53:34.302Z,51.179272
2022-12-18T02:54:34.284Z,51.179283
2022-12-18T02:55:34.310Z,51.179264
2022-12-18T02:56:34.288Z,51.179279
2022-12-18T02:57:34.301Z,51.179256
2022-12-18T02:58:34.277Z,51.179276
2022-12-18T02:59:34.261Z,51.179253
2022-12-18T03:00:34.314Z,51.179241
2022-12-18T03:01:34.349Z,51.179260
2022-12-18T03:02:34.281Z,51.179253
2022-12-18T03:03:34.236Z,51.179260
2022-12-18T03:04:34.199Z,51.179268
2022-12-18T03:05:34.228Z,51.179264
2022-12-18T03:06:34.163Z,51.179230
2022-12-18T03:07:34.172Z,51.179218
2022-12-18T03:08:34.187Z,51.179218
2022-12-18T03:09:34.148Z,51.179279
2022-12-18T03:10:34.159Z,51.179287
2022-12-18T03:11:34.154Z,51.179272
2022-12-18T03:12:34.112Z,51.179291
2022-12-18T03:13:34.111Z,51.179279
2022-12-18T03:14:34.091Z,51.179253
2022-12-18T03:15:34.086Z,51.179256
2022-12-18T03:16:34.195Z,51.179256
2022-12-18T03:17:34.079Z,51.179302
2022-12-18T03:18:34.048Z,51.179291
2022-12-18T03:19:34.147Z,51.179279
2022-12-18T03:20:34.053Z,51.179264
2022-12-18T03:21:34.061Z,51.179268
2022-12-18T03:22:34.022Z,51.179276
2022-12-18T03:23:34.000Z,51.179283
2022-12-18T03:24:34.036Z,51.179283
2022-12-18T03:25:33.972Z,51.179249
2022-12-18T03:26:33.977Z,51.179218
2022-12-18T03:27:33.993Z,51.179226
2022-12-18T03:28:33.945Z,51.179287
2022-12-18T03:29:34.069Z,51.179283
2022-12-18T03:30:33.971Z,51.179356
2022-12-18T03:31:33.945Z,51.179344
2022-12-18T03:32:34.011Z,51.179371
2022-12-18T03:33:33.943Z,51.179317
2022-12-18T03:34:33.921Z,51.179325
2022-12-18T03:35:33.898Z,51.179367
2022-12-18T03:36:33.914Z,51.179314
2022-12-18T03:37:33.876Z,51.179287
2022-12-18T03:38:33.847Z,51.179276
2022-12-18T03:39:33.887Z,51.179279
2022-12-18T03:40:33.847Z,51.179245
2022-12-18T03:41:33.828Z,51.179260
2022-12-18T03:42:33.853Z,51.179256
2022-12-18T03:43:33.836Z,51.179260
2022-12-18T03:44:33.806Z,51.179287
2022-12-18T03:45:33.823Z,51.179268
2022-12-18T03:46:34.808Z,51.179317
2022-12-18T03:47:33.781Z,51.179359
2022-12-18T03:48:33.921Z,51.179337
2022-12-18T03:49:33.791Z,51.179413
2022-12-18T03:50:33.731Z,51.179371
2022-12-18T03:51:33.811Z,51.179310
2022-12-18T03:52:33.713Z,51.179409
2022-12-18T03:53:33.733Z,51.179424
2022-12-18T03:54:33.709Z,51.179314
2022-12-18T03:55:33.691Z,51.179314
2022-12-18T03:56:33.693Z,51.179375
2022-12-18T03:57:33.667Z,51.179314
2022-12-18T03:58:33.664Z,51.179264
2022-12-18T03:59:33.660Z,51.179260
2022-12-18T04:00:33.655Z,51.179291
2022-12-18T04:01:33.682Z,51.179298
2022-12-18T04:02:33.791Z,51.179272
2022-12-18T04:03:33.739Z,51.179321
2022-12-18T04:04:33.687Z,51.179359
2022-12-18T04:05:33.607Z,51.179314
2022-12-18T04:06:33.576Z,51.179310
2022-12-18T04:07:33.556Z,51.179314
2022-12-18T04:08:33.558Z,51.179329
2022-12-18T04:09:33.552Z,51.179337
2022-12-18T04:10:33.541Z,51.179279
2022-12-18T04:11:33.538Z,51.179268
2022-12-18T04:12:33.502Z,51.179287
2022-12-18T04:13:33.508Z,51.179348
2022-12-18T04:14:33.539Z,51.179321
2022-12-18T04:15:33.568Z,51.179325
2022-12-18T04:16:33.479Z,51.179329
2022-12-18T04:17:33.467Z,51.179333
2022-12-18T04:18:33.483Z,51.179314
2022-12-18T04:19:33.444Z,51.179325
2022-12-18T04:20:33.543Z,51.179317
2022-12-18T04:21:33.448Z,51.179306
2022-12-18T04:22:33.413Z,51.179268
2022-12-18T04:23:33.486Z,51.179291
2022-12-18T04:24:33.402Z,51.179310
2022-12-18T04:25:33.395Z,51.179283
2022-12-18T04:26:33.374Z,51.179295
2022-12-18T04:27:34.390Z,51.179321
2022-12-18T04:28:33.359Z,51.179325
2022-12-18T04:29:33.337Z,51.179287
2022-12-18T04:30:33.375Z,51.179279
2022-12-18T04:31:33.420Z,51.179256
2022-12-18T04:32:33.349Z,51.179234
2022-12-18T04:33:33.292Z,51.179241
2022-12-18T04:34:34.302Z,51.179222
2022-12-18T04:35:33.301Z,51.179256
2022-12-18T04:36:33.366Z,51.179264
2022-12-18T04:37:33.280Z,51.179230
2022-12-18T04:38:33.302Z,51.179207
2022-12-18T04:39:33.252Z,51.179237
2022-12-18T04:40:33.301Z,51.179264
2022-12-18T04:41:33.263Z,51.179276
2022-12-18T04:42:33.210Z,51.179260
2022-12-18T04:43:33.210Z,51.179253
2022-12-18T04:44:33.206Z,51.179272
2022-12-18T04:45:33.228Z,51.179287
2022-12-18T04:46:33.253Z,51.179291
2022-12-18T04:47:33.190Z,51.179268
2022-12-18T04:48:33.202Z,51.179287
2022-12-18T04:49:33.152Z,51.179302
2022-12-18T04:50:33.190Z,51.179283
2022-12-18T04:51:33.146Z,51.179241
2022-12-18T04:52:33.203Z,51.179291
2022-12-18T04:53:33.160Z,51.179287
2022-12-18T04:54:33.114Z,51.179276
2022-12-18T04:55:33.122Z,51.179272
2022-12-18T04:56:33.070Z,51.179295
2022-12-18T04:57:33.075Z,51.179329
2022-12-18T04:58:33.077Z,51.179329
2022-12-18T04:59:33.052Z,51.179321
2022-12-18T05:00:33.062Z,51.179306
2022-12-18T05:01:35.107Z,51.179287
2022-12-18T05:02:34.159Z,51.179291
2022-12-18T05:03:33.050Z,51.179276
2022-12-18T05:04:32.997Z,51.179260
2022-12-18T05:05:33.007Z,51.179237
2022-12-18T05:06:32.980Z,51.179237
2022-12-18T05:07:32.972Z,51.179203
2022-12-18T05:08:33.036Z,51.179199
2022-12-18T05:09:32.959Z,51.179256
2022-12-18T05:10:38.020Z,51.179245
2022-12-18T05:11:34.944Z,51.179253
2022-12-18T05:12:32.913Z,51.179241
2022-12-18T05:13:32.938Z,51.179245
2022-12-18T05:14:32.906Z,51.179256
2022-12-18T05:15:32.899Z,51.179234
2022-12-18T05:16:32.958Z,51.179214
2022-12-18T05:17:32.867Z,51.179234
2022-12-18T05:18:32.852Z,51.179203
2022-12-18T05:19:32.852Z,51.179249
2022-12-18T05:20:32.874Z,51.179268
2022-12-18T05:21:32.842Z,51.179245
2022-12-18T05:22:32.826Z,51.179260
2022-12-18T05:23:32.808Z,51.179245
2022-12-18T05:24:32.901Z,51.179276
2022-12-18T05:25:32.774Z,51.179249
2022-12-18T05:26:32.815Z,51.179207
2022-12-18T05:27:32.782Z,51.179222
2022-12-18T05:28:32.748Z,51.179211
2022-12-18T05:29:32.765Z,51.179211
2022-12-18T05:30:32.737Z,51.179184
2022-12-18T05:31:38.919Z,51.179150
2022-12-18T05:32:34.770Z,51.179176
2022-12-18T05:33:32.736Z,51.179211
2022-12-18T05:34:32.683Z,51.179203
2022-12-18T05:35:32.685Z,51.179214
2022-12-18T05:36:32.691Z,51.179199
2022-12-18T05:37:33.604Z,51.179256
2022-12-18T05:38:32.665Z,51.179249
2022-12-18T05:39:32.637Z,51.179253
2022-12-18T05:40:32.711Z,51.179237
2022-12-18T05:41:32.663Z,51.179226
2022-12-18T05:42:32.625Z,51.179211
2022-12-18T05:43:32.608Z,51.179256
2022-12-18T05:44:32.602Z,51.179272
2022-12-18T05:45:32.622Z,51.179253
2022-12-18T05:46:32.637Z,51.179234
2022-12-18T05:47:32.584Z,51.179264
2022-12-18T05:48:32.561Z,51.179226
2022-12-18T05:49:32.552Z,51.179203
2022-12-18T05:50:32.533Z,51.179230
2022-12-18T05:51:32.561Z,51.179249
2022-12-18T05:52:32.503Z,51.179260
2022-12-18T05:53:32.513Z,51.179245
2022-12-18T05:54:32.526Z,51.179302
2022-12-18T05:55:32.481Z,51.179306
2022-12-18T05:56:32.558Z,51.179295
2022-12-18T05:57:32.497Z,51.179317
2022-12-18T05:58:32.452Z,51.179333
2022-12-18T05:59:32.473Z,51.179321
2022-12-18T06:00:32.446Z,51.179295
2022-12-18T06:01:32.484Z,51.179295
2022-12-18T06:02:32.466Z,51.179287
2022-12-18T06:03:34.172Z,51.179264
2022-12-18T06:04:33.402Z,51.179237
2022-12-18T06:05:32.399Z,51.179234
2022-12-18T06:06:32.380Z,51.179226
2022-12-18T06:07:32.374Z,51.179230
2022-12-18T06:08:32.382Z,51.179237
2022-12-18T06:09:32.345Z,51.179222
2022-12-18T06:10:32.342Z,51.179230
2022-12-18T06:11:32.337Z,51.179249
2022-12-18T06:12:32.421Z,51.179264
2022-12-18T06:13:32.328Z,51.179310
2022-12-18T06:14:32.304Z,51.179298
2022-12-18T06:15:32.314Z,51.179276
2022-12-18T06:16:32.363Z,51.179253
2022-12-18T06:17:32.277Z,51.179241
2022-12-18T06:18:32.280Z,51.179253
2022-12-18T06:19:32.258Z,51.179264
2022-12-18T06:20:33.841Z,51.179287
2022-12-18T06:21:33.234Z,51.179295
2022-12-18T06:22:32.263Z,51.179291
2022-12-18T06:23:32.204Z,51.179287
2022-12-18T06:24:32.257Z,51.179283
2022-12-18T06:25:32.204Z,51.179256
2022-12-18T06:26:32.217Z,51.179276
2022-12-18T06:27:32.186Z,51.179276
2022-12-18T06:28:32.244Z,51.179226
2022-12-18T06:29:32.143Z,51.179226
2022-12-18T06:30:32.160Z,51.179218
2022-12-18T06:31:32.185Z,51.179230
2022-12-18T06:32:32.131Z,51.179241
2022-12-18T06:33:32.123Z,51.179256
2022-12-18T06:34:32.103Z,51.179249
2022-12-18T06:35:32.088Z,51.179253
2022-12-18T06:36:32.102Z,51.179253
2022-12-18T06:37:32.091Z,51.179306
2022-12-18T06:38:32.055Z,51.179298
2022-12-18T06:39:32.062Z,51.179260
2022-12-18T06:40:32.059Z,51.179272
2022-12-18T06:41:32.038Z,51.179279
2022-12-18T06:42:32.056Z,51.179272
2022-12-18T06:43:32.013Z,51.179195
2022-12-18T06:44:32.099Z,51.179195
2022-12-18T06:45:32.041Z,51.179222
2022-12-18T06:46:31.976Z,51.179211
2022-12-18T06:47:31.987Z,51.179184
2022-12-18T06:48:31.973Z,51.179188
2022-12-18T06:49:31.955Z,51.179199
2022-12-18T06:50:31.970Z,51.179192
2022-12-18T06:51:31.935Z,51.179218
2022-12-18T06:52:31.924Z,51.179214
2022-12-18T06:53:31.969Z,51.179245
2022-12-18T06:54:31.942Z,51.179253
2022-12-18T06:55:31.910Z,51.179268
2022-12-18T06:56:31.888Z,51.179272
2022-12-18T06:57:31.928Z,51.179260
2022-12-18T06:58:31.892Z,51.179203
2022-12-18T06:59:31.851Z,51.178867
2022-12-18T07:00:31.926Z,51.178974
2022-12-18T07:01:31.999Z,51.179222
2022-12-18T07:02:31.925Z,51.179287
2022-12-18T07:03:31.862Z,51.179287
2022-12-18T07:04:31.851Z,51.179234
2022-12-18T07:05:31.830Z,51.179264
2022-12-18T07:06:31.806Z,51.179245
2022-12-18T07:08:03.700Z,51.179203
2022-12-18T07:08:31.795Z,51.179211
2022-12-18T07:09:31.755Z,51.179264
2022-12-18T07:10:31.777Z,51.179276
2022-12-18T07:11:31.768Z,51.179264
2022-12-18T07:12:31.758Z,51.179287
2022-12-18T07:13:31.739Z,51.179272
2022-12-18T07:14:31.727Z,51.179283
2022-12-18T07:15:31.722Z,51.179272
2022-12-18T07:16:31.870Z,51.179245
2022-12-18T07:17:31.662Z,51.179279
2022-12-18T07:18:31.667Z,51.179298
2022-12-18T07:19:31.688Z,51.179283
2022-12-18T07:20:31.634Z,51.179279
2022-12-18T07:21:31.677Z,51.179256
2022-12-18T07:22:31.683Z,51.179279
2022-12-18T07:23:31.610Z,51.179237
2022-12-18T07:24:31.627Z,51.179256
2022-12-18T07:25:31.633Z,51.179279
2022-12-18T07:26:31.609Z,51.179287
2022-12-18T07:27:31.565Z,51.179279
2022-12-18T07:28:31.590Z,51.179256
2022-12-18T07:29:31.541Z,51.179195
2022-12-18T07:30:31.561Z,51.179157
2022-12-18T07:31:31.628Z,51.179161
2022-12-18T07:32:31.626Z,51.179207
2022-12-18T07:33:31.507Z,51.179241
2022-12-18T07:34:31.544Z,51.179222
2022-12-18T07:35:31.527Z,51.179241
2022-12-18T07:36:31.486Z,51.179295
2022-12-18T07:37:31.508Z,51.179314
2022-12-18T07:38:31.496Z,51.179287
2022-12-18T07:39:31.491Z,51.179234
2022-12-18T07:40:31.503Z,51.179222
2022-12-18T07:41:31.478Z,51.179237
2022-12-18T07:42:31.444Z,51.179276
2022-12-18T07:43:31.434Z,51.179260
2022-12-18T07:44:31.415Z,51.179253
2022-12-18T07:45:31.473Z,51.179264
2022-12-18T07:46:31.412Z,51.179256
2022-12-18T07:47:31.434Z,51.179268
2022-12-18T07:48:31.476Z,51.179249
2022-12-18T07:49:31.424Z,51.179234
2022-12-18T07:50:31.372Z,51.179256
2022-12-18T07:51:31.338Z,51.179256
2022-12-18T07:52:31.379Z,51.179245
2022-12-18T07:53:31.382Z,51.179218
2022-12-18T07:54:31.325Z,51.179256
2022-12-18T07:55:47.941Z,51.179253
2022-12-18T07:56:33.322Z,51.179264
2022-12-18T07:57:49.975Z,51.179253
2022-12-18T07:58:33.278Z,51.179222
2022-12-18T07:59:31.305Z,51.179214
2022-12-18T08:00:31.248Z,51.179237
2022-12-18T08:01:31.404Z,51.179268
2022-12-18T08:02:31.338Z,51.179268
2022-12-18T08:03:31.220Z,51.179241
2022-12-18T08:04:31.304Z,51.179234
2022-12-18T08:05:31.251Z,51.179256
2022-12-18T08:06:31.228Z,51.179272
2022-12-18T08:07:31.181Z,51.179295
2022-12-18T08:08:31.237Z,51.179264
2022-12-18T08:09:31.164Z,51.179188
2022-12-18T08:10:31.172Z,51.179214
2022-12-18T08:11:31.182Z,51.179253
2022-12-18T08:12:31.148Z,51.179268
2022-12-18T08:13:31.133Z,51.179272
2022-12-18T08:14:31.138Z,51.179264
2022-12-18T08:15:31.139Z,51.179253
2022-12-18T08:16:31.136Z,51.179249
2022-12-18T08:17:31.084Z,51.179249
2022-12-18T08:18:31.125Z,51.179234
2022-12-18T08:19:31.107Z,51.179241
2022-12-18T08:20:31.162Z,51.179234
2022-12-18T08:21:31.044Z,51.179234
2022-12-18T08:22:31.049Z,51.179234
2022-12-18T08:23:31.064Z,51.179237
2022-12-18T08:24:32.008Z,51.179234
2022-12-18T08:25:31.032Z,51.179222
2022-12-18T08:26:31.016Z,51.179203
2022-12-18T08:27:30.997Z,51.179226
2022-12-18T08:28:31.010Z,51.179234
2022-12-18T08:29:31.013Z,51.179272
2022-12-18T08:30:31.008Z,51.179253
2022-12-18T08:31:31.037Z,51.179245
2022-12-18T08:32:30.964Z,51.179226
2022-12-18T08:33:30.939Z,51.179245
2022-12-18T08:34:30.932Z,51.179279
2022-12-18T08:35:36.389Z,51.179317
2022-12-18T08:36:32.998Z,51.179283
2022-12-18T08:37:30.897Z,51.179245
2022-12-18T08:38:30.895Z,51.179176
2022-12-18T08:39:30.900Z,51.179188
2022-12-18T08:40:30.859Z,51.179276
2022-12-18T08:41:30.879Z,51.179234
2022-12-18T08:42:30.847Z,51.179207
2022-12-18T08:43:30.825Z,51.179199
2022-12-18T08:44:30.848Z,51.179214
2022-12-18T08:45:30.836Z,51.179211
2022-12-18T08:46:30.861Z,51.179176
2022-12-18T08:47:30.771Z,51.179173
2022-12-18T08:48:30.800Z,51.179199
2022-12-18T08:49:30.799Z,51.179211
2022-12-18T08:50:30.784Z,51.179226
2022-12-18T08:51:30.740Z,51.179203
2022-12-18T08:52:30.830Z,51.179199
2022-12-18T08:53:36.593Z,51.179203
2022-12-18T08:54:32.730Z,51.179253
2022-12-18T08:55:30.708Z,51.179241
2022-12-18T08:56:30.726Z,51.179253
2022-12-18T08:57:30.680Z,51.179245
2022-12-18T08:58:30.682Z,51.179237
2022-12-18T08:59:30.701Z,51.179245
2022-12-18T09:00:30.668Z,51.179268
2022-12-18T09:01:30.791Z,51.179241
2022-12-18T09:02:30.820Z,51.179249
2022-12-18T09:03:30.793Z,51.179241
2022-12-18T09:04:30.618Z,51.179237
2022-12-18T09:05:30.624Z,51.179211
2022-12-18T09:06:31.621Z,51.179214
2022-12-18T09:07:30.690Z,51.179184
2022-12-18T09:08:30.663Z,51.179184
2022-12-18T09:09:30.587Z,51.179199
2022-12-18T09:10:30.566Z,51.179268
2022-12-18T09:11:30.539Z,51.179268
2022-12-18T09:12:31.563Z,51.179226
2022-12-18T09:13:30.513Z,51.179195
2022-12-18T09:14:30.506Z,51.179226
2022-12-18T09:15:30.535Z,51.179192
2022-12-18T09:16:32.617Z,51.179207
2022-12-18T09:17:31.554Z,51.179214
2022-12-18T09:18:30.505Z,51.179234
2022-12-18T09:19:30.482Z,51.179249
2022-12-18T09:20:30.421Z,51.179279
2022-12-18T09:21:30.475Z,51.179268
2022-12-18T09:22:30.445Z,51.179241
2022-12-18T09:23:30.433Z,51.179211
2022-12-18T09:24:36.387Z,51.179234
2022-12-18T09:25:31.517Z,51.179249
2022-12-18T09:26:30.415Z,51.179249
2022-12-18T09:27:30.390Z,51.179260
2022-12-18T09:28:30.563Z,51.179245
2022-12-18T09:29:30.360Z,51.179276
2022-12-18T09:30:30.418Z,51.179279
2022-12-18T09:31:30.363Z,51.179268
2022-12-18T09:32:30.353Z,51.179317
2022-12-18T09:33:30.325Z,51.179333
2022-12-18T09:34:30.318Z,51.179340
2022-12-18T09:35:30.327Z,51.179253
2022-12-18T09:36:30.296Z,51.179260
2022-12-18T09:37:30.350Z,51.179226
2022-12-18T09:38:30.278Z,51.179203
2022-12-18T09:39:30.252Z,51.179131
2022-12-18T09:40:30.262Z,51.179188
2022-12-18T09:41:30.356Z,51.179264
2022-12-18T09:42:30.298Z,51.179306
2022-12-18T09:43:30.199Z,51.179298
2022-12-18T09:44:30.272Z,51.179291
2022-12-18T09:45:30.636Z,51.179279
2022-12-18T09:46:30.234Z,51.179283
2022-12-18T09:47:30.209Z,51.179249
2022-12-18T09:48:30.185Z,51.179237
2022-12-18T09:49:30.156Z,51.179249
2022-12-18T09:50:30.137Z,51.179268
2022-12-18T09:51:30.210Z,51.179237
2022-12-18T09:52:30.131Z,51.179218
2022-12-18T09:53:30.113Z,51.179230
2022-12-18T09:54:30.153Z,51.179226
2022-12-18T09:55:36.599Z,51.179214
2022-12-18T09:56:32.183Z,51.179291
2022-12-18T09:57:30.059Z,51.179310
2022-12-18T09:58:30.110Z,51.179317
2022-12-18T09:59:30.087Z,51.179314
2022-12-18T10:00:30.033Z,51.179264
2022-12-18T10:01:38.782Z,51.179272
2022-12-18T10:02:32.193Z,51.179283
2022-12-18T10:03:30.019Z,51.179272
2022-12-18T10:04:30.044Z,51.179295
2022-12-18T10:05:30.034Z,51.179272
2022-12-18T10:06:30.015Z,51.179325
2022-12-18T10:07:29.963Z,51.179367
2022-12-18T10:08:30.023Z,51.179356
2022-12-18T10:09:29.945Z,51.179344
2022-12-18T10:10:29.943Z,51.179310
2022-12-18T10:11:29.940Z,51.179317
2022-12-18T10:12:30.079Z,51.179306
2022-12-18T10:13:29.894Z,51.179276
2022-12-18T10:14:29.919Z,51.179237
2022-12-18T10:15:29.982Z,51.179279
2022-12-18T10:16:29.877Z,51.179337
2022-12-18T10:17:29.889Z,51.179253
2022-12-18T10:18:29.894Z,51.179314
2022-12-18T10:19:29.840Z,51.179310
2022-12-18T10:20:29.829Z,51.179302
2022-12-18T10:21:29.843Z,51.179314
2022-12-18T10:22:29.843Z,51.179314
2022-12-18T10:23:29.802Z,51.179302
2022-12-18T10:24:29.786Z,51.179314
2022-12-18T10:25:29.823Z,51.179310
2022-12-18T10:26:29.781Z,51.179291
2022-12-18T10:27:29.750Z,51.179291
2022-12-18T10:28:29.869Z,51.179272
2022-12-18T10:29:29.791Z,51.179287
2022-12-18T10:30:29.736Z,51.179256
2022-12-18T10:31:29.752Z,51.179222
2022-12-18T10:32:29.801Z,51.179222
2022-12-18T10:33:29.674Z,51.179260
2022-12-18T10:34:29.680Z,51.179283
2022-12-18T10:35:29.693Z,51.179256
2022-12-18T10:36:29.666Z,51.179218
2022-12-18T10:37:29.648Z,51.179234
2022-12-18T10:38:29.631Z,51.179287
2022-12-18T10:39:29.651Z,51.179264
2022-12-18T10:40:29.616Z,51.179245
2022-12-18T10:41:29.747Z,51.179245
2022-12-18T10:42:29.623Z,51.179226
2022-12-18T10:43:29.564Z,51.179241
2022-12-18T10:44:29.677Z,51.179253
2022-12-18T10:45:29.581Z,51.179230
2022-12-18T10:46:29.659Z,51.179237
2022-12-18T10:47:29.559Z,51.179253
2022-12-18T10:48:29.560Z,51.179264
2022-12-18T10:49:29.520Z,51.179264
2022-12-18T10:50:47.163Z,51.179260
2022-12-18T10:51:31.881Z,51.179264
2022-12-18T10:52:29.494Z,51.179256
2022-12-18T10:53:29.473Z,51.179256
2022-12-18T10:54:30.455Z,51.179264
2022-12-18T10:55:29.475Z,51.179256
2022-12-18T10:56:29.457Z,51.179264
2022-12-18T10:57:29.422Z,51.179264
2022-12-18T10:58:29.432Z,51.179264
2022-12-18T10:59:29.435Z,51.179245
2022-12-18T11:00:29.510Z,51.179211
2022-12-18T11:01:29.508Z,51.179245
2022-12-18T11:02:29.601Z,51.179249
2022-12-18T11:03:29.479Z,51.179249
2022-12-18T11:04:29.389Z,51.179249
2022-12-18T11:05:29.378Z,51.179287
2022-12-18T11:06:29.343Z,51.179256
2022-12-18T11:07:29.315Z,51.179245
2022-12-18T11:08:29.306Z,51.179260
2022-12-18T11:09:29.329Z,51.179321
2022-12-18T11:10:29.459Z,51.179295
2022-12-18T11:11:29.278Z,51.179237
2022-12-18T11:12:29.295Z,51.179214
2022-12-18T11:13:29.255Z,51.179222
2022-12-18T11:14:29.269Z,51.179234
2022-12-18T11:15:29.244Z,51.179241
2022-12-18T11:16:29.406Z,51.179222
2022-12-18T11:17:29.194Z,51.179195
2022-12-18T11:18:29.201Z,51.179195
2022-12-18T11:19:29.226Z,51.179230
2022-12-18T11:20:29.192Z,51.179199
2022-12-18T11:21:29.197Z,51.179234
2022-12-18T11:22:29.173Z,51.179264
2022-12-18T11:23:29.175Z,51.179260
2022-12-18T11:24:29.161Z,51.179218